createdAt,value
2023-05-25T00:02:29.488Z,8.90
2023-05-25T00:04:58.406Z,9.00
2023-05-25T00:07:26.500Z,8.90
2023-05-25T00:09:54.549Z,8.80
2023-05-25T00:12:22.677Z,8.80
2023-05-25T00:14:51.421Z,8.70
2023-05-25T00:17:19.861Z,8.60
2023-05-25T00:19:49.351Z,8.60
2023-05-25T00:22:17.640Z,8.60
2023-05-25T00:24:45.760Z,8.80
2023-05-25T00:27:13.961Z,8.70
2023-05-25T00:29:42.150Z,8.40
2023-05-25T00:32:10.286Z,8.40
2023-05-25T00:34:38.521Z,8.50
2023-05-25T00:37:08.537Z,8.40
2023-05-25T00:39:39.202Z,8.40
2023-05-25T00:42:08.929Z,8.40
2023-05-25T00:44:37.003Z,8.40
2023-05-25T00:47:05.525Z,8.40
2023-05-25T00:49:37.435Z,8.40
2023-05-25T00:52:06.476Z,8.40
2023-05-25T00:54:38.808Z,8.40
2023-05-25T00:57:09.040Z,8.40
2023-05-25T00:59:41.633Z,8.40
2023-05-25T01:02:16.366Z,8.40
2023-05-25T01:04:46.525Z,8.50
2023-05-25T01:07:22.256Z,8.50
2023-05-25T01:09:57.356Z,8.50
2023-05-25T01:12:28.069Z,8.50
2023-05-25T01:14:57.783Z,8.60
2023-05-25T01:17:29.031Z,8.60
2023-05-25T01:20:09.450Z,8.60
2023-05-25T01:22:47.628Z,8.70
2023-05-25T01:25:21.723Z,8.60
2023-05-25T01:27:52.710Z,8.60
2023-05-25T01:30:22.328Z,8.60
2023-05-25T01:32:52.290Z,8.50
2023-05-25T01:35:21.863Z,8.50
2023-05-25T01:37:53.354Z,8.50
2023-05-25T01:40:21.637Z,8.40
2023-05-25T01:42:49.720Z,8.40
2023-05-25T01:45:17.861Z,8.50
2023-05-25T01:47:53.468Z,8.30
2023-05-25T01:50:27.849Z,8.30
2023-05-25T01:53:03.358Z,8.30
2023-05-25T01:55:39.493Z,8.30
2023-05-25T01:58:09.497Z,8.30
2023-05-25T02:00:39.095Z,8.40
2023-05-25T02:03:10.099Z,8.20
2023-05-25T02:05:38.898Z,8.20
2023-05-25T02:08:09.849Z,8.20
2023-05-25T02:10:38.092Z,8.20
2023-05-25T02:13:06.381Z,8.20
2023-05-25T02:15:35.285Z,8.10
2023-05-25T02:18:05.721Z,8.60
2023-05-25T02:20:34.014Z,8.00
2023-05-25T02:23:02.132Z,8.00
2023-05-25T02:25:31.735Z,8.00
2023-05-25T02:27:59.852Z,8.00
2023-05-25T02:30:28.221Z,8.00
2023-05-25T02:32:58.866Z,7.90
2023-05-25T02:35:27.025Z,8.10
2023-05-25T02:37:55.262Z,7.90
2023-05-25T02:40:23.853Z,7.90
2023-05-25T02:42:53.370Z,7.90
2023-05-25T02:45:21.715Z,8.00
2023-05-25T02:47:49.957Z,8.10
2023-05-25T02:50:20.560Z,8.40
2023-05-25T02:52:52.354Z,8.00
2023-05-25T02:55:20.706Z,7.90
2023-05-25T02:57:48.900Z,7.90
2023-05-25T03:00:34.282Z,7.80
2023-05-25T03:03:02.570Z,7.90
2023-05-25T03:05:35.408Z,7.80
2023-05-25T03:08:03.954Z,8.10
2023-05-25T03:10:32.542Z,7.90
2023-05-25T03:13:01.605Z,7.90
2023-05-25T03:15:30.065Z,7.80
2023-05-25T03:18:01.698Z,7.70
2023-05-25T03:20:34.811Z,7.70
2023-05-25T03:23:03.288Z,7.70
2023-05-25T03:25:32.033Z,7.60
2023-05-25T03:28:02.129Z,7.70
2023-05-25T03:30:31.832Z,7.60
2023-05-25T03:33:01.707Z,7.60
2023-05-25T03:35:35.701Z,7.60
2023-05-25T03:38:03.742Z,7.60
2023-05-25T03:40:32.030Z,7.60
2023-05-25T03:43:00.109Z,7.60
2023-05-25T03:45:29.709Z,7.50
2023-05-25T03:47:58.132Z,7.60
2023-05-25T03:50:28.674Z,7.60
2023-05-25T03:52:58.511Z,7.60
2023-05-25T03:55:26.932Z,7.60
2023-05-25T03:57:55.045Z,7.70
2023-05-25T04:00:23.273Z,7.60
2023-05-25T04:02:52.121Z,7.60
2023-05-25T04:05:21.701Z,7.60
2023-05-25T04:07:52.262Z,7.70
2023-05-25T04:10:20.600Z,7.80
2023-05-25T04:12:48.836Z,7.90
2023-05-25T04:15:17.666Z,7.90
2023-05-25T04:17:59.582Z,7.90
2023-05-25T04:20:27.896Z,8.00
2023-05-25T04:22:57.911Z,8.00
2023-05-25T04:25:29.247Z,8.00
2023-05-25T04:27:58.400Z,8.10
2023-05-25T04:30:47.987Z,8.20
2023-05-25T04:33:42.831Z,8.20
2023-05-25T04:36:21.237Z,8.30
2023-05-25T04:38:52.130Z,8.50
2023-05-25T04:41:20.388Z,8.50
2023-05-25T04:44:07.785Z,8.60
2023-05-25T04:46:41.246Z,8.70
2023-05-25T04:49:18.979Z,8.80
2023-05-25T04:51:47.129Z,8.80
2023-05-25T04:54:17.478Z,8.90
2023-05-25T04:56:46.060Z,9.00
2023-05-25T04:59:14.399Z,9.10
2023-05-25T05:01:44.583Z,9.00
2023-05-25T05:04:16.319Z,9.10
2023-05-25T05:06:44.669Z,9.20
2023-05-25T05:09:20.498Z,9.20
2023-05-25T05:11:49.667Z,9.20
2023-05-25T05:14:19.180Z,9.30
2023-05-25T05:16:48.676Z,9.40
2023-05-25T05:19:17.433Z,9.40
2023-05-25T05:21:45.910Z,9.40
2023-05-25T05:24:14.696Z,9.50
2023-05-25T05:26:55.511Z,9.50
2023-05-25T05:29:29.467Z,9.60
2023-05-25T05:31:58.337Z,9.60
2023-05-25T05:34:27.076Z,9.70
2023-05-25T05:36:58.463Z,9.80
2023-05-25T05:39:28.902Z,9.80
2023-05-25T05:41:58.543Z,9.90
2023-05-25T05:44:29.260Z,10.00
2023-05-25T05:47:00.802Z,10.20
2023-05-25T05:49:30.922Z,10.20
2023-05-25T05:52:00.211Z,10.20
2023-05-25T05:54:29.078Z,10.20
2023-05-25T05:57:02.505Z,10.80
2023-05-25T05:59:30.617Z,10.30
2023-05-25T06:01:58.817Z,10.40
2023-05-25T06:04:28.907Z,10.40
2023-05-25T06:06:58.956Z,10.50
2023-05-25T06:09:27.641Z,10.50
2023-05-25T06:12:01.573Z,10.60
2023-05-25T06:14:30.416Z,10.70
2023-05-25T06:17:02.684Z,10.70
2023-05-25T06:19:31.161Z,10.80
2023-05-25T06:21:59.663Z,10.90
2023-05-25T06:24:27.766Z,11.00
2023-05-25T06:26:55.902Z,11.00
2023-05-25T06:29:25.800Z,11.10
2023-05-25T06:31:53.994Z,11.20
2023-05-25T06:34:22.113Z,11.30
2023-05-25T06:36:50.412Z,11.40
2023-05-25T06:39:19.261Z,11.40
2023-05-25T06:41:47.380Z,11.50
2023-05-25T06:44:28.327Z,11.60
2023-05-25T06:46:56.451Z,12.10
2023-05-25T06:49:24.686Z,11.70
2023-05-25T06:51:52.975Z,11.80
2023-05-25T06:54:21.185Z,12.00
2023-05-25T06:56:49.441Z,12.40
2023-05-25T06:59:18.332Z,12.80
2023-05-25T07:01:48.911Z,13.40
2023-05-25T07:04:17.009Z,14.50
2023-05-25T07:06:45.282Z,15.10
2023-05-25T07:09:14.086Z,14.90
2023-05-25T07:11:42.164Z,14.50
2023-05-25T07:14:10.567Z,14.10
2023-05-25T07:16:39.301Z,13.80
2023-05-25T07:19:08.809Z,13.50
2023-05-25T07:21:37.544Z,13.50
2023-05-25T07:24:06.546Z,13.20
2023-05-25T07:26:35.288Z,13.20
2023-05-25T07:29:04.092Z,13.20
2023-05-25T07:31:32.182Z,13.10
2023-05-25T07:34:00.467Z,13.10
2023-05-25T07:36:29.913Z,13.20
2023-05-25T07:38:59.009Z,13.20
2023-05-25T07:41:27.347Z,13.30
2023-05-25T07:43:55.615Z,13.30
2023-05-25T07:46:25.966Z,13.40
2023-05-25T07:48:54.678Z,13.50
2023-05-25T07:51:23.410Z,13.60
2023-05-25T07:53:54.226Z,13.80
2023-05-25T07:56:22.552Z,13.80
2023-05-25T07:58:50.767Z,13.80
2023-05-25T08:01:18.930Z,14.00
2023-05-25T08:03:49.420Z,13.90
2023-05-25T08:06:18.681Z,14.00
2023-05-25T08:08:47.127Z,14.00
2023-05-25T08:11:18.035Z,14.10
2023-05-25T08:13:46.194Z,14.10
2023-05-25T08:18:46.480Z,14.40
2023-05-25T08:21:14.696Z,14.30
2023-05-25T08:23:43.311Z,14.40
2023-05-25T08:26:31.080Z,14.40
2023-05-25T08:29:02.389Z,14.30
2023-05-25T08:31:30.919Z,14.40
2023-05-25T08:33:59.162Z,14.40
2023-05-25T08:36:27.990Z,14.50
2023-05-25T08:38:56.282Z,14.50
2023-05-25T08:41:24.360Z,14.80
2023-05-25T08:43:52.776Z,14.60
2023-05-25T08:46:31.734Z,14.70
2023-05-25T08:49:03.440Z,14.70
2023-05-25T08:51:38.118Z,14.70
2023-05-25T08:54:11.489Z,14.80
2023-05-25T08:56:49.854Z,14.80
2023-05-25T08:59:30.120Z,14.90
2023-05-25T09:02:08.173Z,15.00
2023-05-25T09:04:36.846Z,15.00
2023-05-25T09:07:10.420Z,15.10
2023-05-25T09:09:40.613Z,15.20
2023-05-25T09:12:10.020Z,15.20
2023-05-25T09:14:45.806Z,15.30
2023-05-25T09:17:15.925Z,15.40
2023-05-25T09:19:44.258Z,15.50
2023-05-25T09:22:16.779Z,15.40
2023-05-25T09:24:45.986Z,15.40
2023-05-25T09:27:18.341Z,15.40
2023-05-25T09:29:49.087Z,15.50
2023-05-25T09:32:21.290Z,15.60
2023-05-25T09:34:49.452Z,15.70
2023-05-25T09:37:19.446Z,15.90
2023-05-25T09:39:48.758Z,15.90
2023-05-25T09:42:17.614Z,16.00
2023-05-25T09:44:48.019Z,16.10
2023-05-25T09:47:17.053Z,16.10
2023-05-25T09:49:50.407Z,16.20
2023-05-25T09:52:18.479Z,16.20
2023-05-25T09:54:47.188Z,16.20
2023-05-25T09:57:16.149Z,16.30
2023-05-25T09:59:45.424Z,16.30
2023-05-25T10:02:13.760Z,16.40
2023-05-25T10:04:42.333Z,16.50
2023-05-25T10:07:12.285Z,16.50
2023-05-25T10:09:42.631Z,16.50
2023-05-25T10:12:11.344Z,16.50
2023-05-25T10:14:40.121Z,16.50
2023-05-25T10:17:12.334Z,16.60
2023-05-25T10:19:46.471Z,16.60
2023-05-25T10:22:22.098Z,16.60
2023-05-25T10:24:57.015Z,16.70
2023-05-25T10:27:29.560Z,16.70
2023-05-25T10:29:58.469Z,16.80
2023-05-25T10:32:28.350Z,16.80
2023-05-25T10:34:58.436Z,16.80
2023-05-25T10:37:29.600Z,16.90
2023-05-25T10:39:59.285Z,16.90
2023-05-25T10:42:27.770Z,17.00
2023-05-25T10:44:56.740Z,17.20
2023-05-25T10:47:25.722Z,17.30
2023-05-25T10:49:55.778Z,17.40
2023-05-25T10:52:30.000Z,17.40
2023-05-25T10:54:59.276Z,17.40
2023-05-25T10:57:27.757Z,17.30
2023-05-25T11:00:01.576Z,17.40
2023-05-25T11:02:30.389Z,17.50
2023-05-25T11:05:32.412Z,17.50
2023-05-25T11:08:03.214Z,17.50
2023-05-25T11:10:47.386Z,17.50
2023-05-25T11:13:33.706Z,17.50
2023-05-25T11:16:20.239Z,17.60
2023-05-25T11:18:52.812Z,17.60
2023-05-25T11:21:40.791Z,17.60
2023-05-25T11:24:15.863Z,17.50
2023-05-25T11:27:01.963Z,17.60
2023-05-25T11:29:33.290Z,17.60
2023-05-25T11:32:02.807Z,17.60
2023-05-25T11:34:32.402Z,17.60
2023-05-25T11:37:03.845Z,17.60
2023-05-25T11:39:33.458Z,17.70
2023-05-25T11:42:06.784Z,17.70
2023-05-25T11:44:38.016Z,17.70
2023-05-25T11:47:09.982Z,17.90
2023-05-25T11:49:46.254Z,17.90
2023-05-25T11:52:16.249Z,17.90
2023-05-25T11:54:46.782Z,18.00
2023-05-25T11:57:17.302Z,18.00
2023-05-25T11:59:52.364Z,18.10
2023-05-25T12:02:21.782Z,18.10
2023-05-25T12:04:57.308Z,18.10
2023-05-25T12:07:26.461Z,18.10
2023-05-25T12:10:06.144Z,18.10
2023-05-25T12:12:40.942Z,18.10
2023-05-25T12:15:11.486Z,18.20
2023-05-25T12:17:43.027Z,18.20
2023-05-25T12:20:15.302Z,18.30
2023-05-25T12:22:44.893Z,18.40
2023-05-25T12:25:16.044Z,18.40
2023-05-25T12:27:44.157Z,18.50
2023-05-25T12:30:13.008Z,18.50
2023-05-25T12:32:55.667Z,18.50
2023-05-25T12:35:23.878Z,18.50
2023-05-25T12:37:52.663Z,18.40
2023-05-25T12:40:24.689Z,18.40
2023-05-25T12:42:59.212Z,18.50
2023-05-25T12:45:27.967Z,18.50
2023-05-25T12:47:56.304Z,18.50
2023-05-25T12:50:24.744Z,18.60
2023-05-25T12:52:53.000Z,18.70
2023-05-25T12:55:27.249Z,18.70
2023-05-25T12:57:57.821Z,18.70
2023-05-25T13:00:28.448Z,18.80
2023-05-25T13:02:56.903Z,18.90
2023-05-25T13:05:26.663Z,18.90
2023-05-25T13:07:56.684Z,18.90
2023-05-25T13:10:26.559Z,19.00
2023-05-25T13:12:57.326Z,19.00
2023-05-25T13:15:27.159Z,19.10
2023-05-25T13:17:58.510Z,19.10
2023-05-25T13:20:28.246Z,19.10
2023-05-25T13:22:56.790Z,19.00
2023-05-25T13:25:27.485Z,19.00
2023-05-25T13:27:57.908Z,19.00
2023-05-25T13:30:26.810Z,19.00
2023-05-25T13:32:55.376Z,18.90
2023-05-25T13:35:37.898Z,19.00
2023-05-25T13:38:06.740Z,19.00
2023-05-25T13:40:36.201Z,19.00
2023-05-25T13:43:07.340Z,19.00
2023-05-25T13:45:35.624Z,19.10
2023-05-25T13:48:03.914Z,19.20
2023-05-25T13:50:32.374Z,19.20
2023-05-25T13:53:00.583Z,19.20
2023-05-25T13:55:31.305Z,19.30
2023-05-25T13:58:01.094Z,19.30
2023-05-25T14:00:29.809Z,19.40
2023-05-25T14:02:58.434Z,19.50
2023-05-25T14:05:26.681Z,19.50
2023-05-25T14:07:56.418Z,19.50
2023-05-25T14:10:25.103Z,19.50
2023-05-25T14:12:53.323Z,19.60
2023-05-25T14:15:22.745Z,19.60
2023-05-25T14:17:51.237Z,19.50
2023-05-25T14:20:27.341Z,19.50
2023-05-25T14:22:55.762Z,19.50
2023-05-25T14:25:23.941Z,19.60
2023-05-25T14:27:52.142Z,19.60
2023-05-25T14:30:21.132Z,19.70
2023-05-25T14:32:51.025Z,19.70
2023-05-25T14:35:19.247Z,19.80
2023-05-25T14:37:47.313Z,19.80
2023-05-25T14:40:15.411Z,19.80
2023-05-25T14:42:43.712Z,19.90
2023-05-25T14:45:13.989Z,19.90
2023-05-25T14:47:43.624Z,19.90
2023-05-25T14:50:13.591Z,20.00
2023-05-25T14:52:42.053Z,20.00
2023-05-25T14:55:10.928Z,20.10
2023-05-25T14:57:39.026Z,20.00
2023-05-25T15:00:08.578Z,20.10
2023-05-25T15:02:36.963Z,20.10
2023-05-25T15:05:05.684Z,20.10
2023-05-25T15:07:35.113Z,20.10
2023-05-25T15:10:03.549Z,20.10
2023-05-25T15:12:31.797Z,20.10
2023-05-25T15:14:59.994Z,20.10
2023-05-25T15:17:30.055Z,20.00
2023-05-25T15:19:58.230Z,20.10
2023-05-25T15:22:27.547Z,20.10
2023-05-25T15:24:57.151Z,20.10
2023-05-25T15:27:25.357Z,20.20
2023-05-25T15:29:53.540Z,20.10
2023-05-25T15:32:21.543Z,20.20
2023-05-25T15:34:49.558Z,20.10
2023-05-25T15:37:17.601Z,20.10
2023-05-25T15:39:45.633Z,20.10
2023-05-25T15:42:15.113Z,20.10
2023-05-25T15:44:43.200Z,20.10
2023-05-25T15:47:11.277Z,20.00
2023-05-25T15:49:40.701Z,20.00
2023-05-25T15:52:08.839Z,20.00
2023-05-25T15:54:36.947Z,20.10
2023-05-25T15:57:05.799Z,20.10
2023-05-25T15:59:35.658Z,20.20
2023-05-25T16:02:05.630Z,20.20
2023-05-25T16:04:33.814Z,20.20
2023-05-25T16:07:01.931Z,20.20
2023-05-25T16:09:30.051Z,20.20
2023-05-25T16:12:00.254Z,20.20
2023-05-25T16:14:28.380Z,20.30
2023-05-25T16:16:57.807Z,20.30
2023-05-25T16:19:25.955Z,20.30
2023-05-25T16:21:54.124Z,20.30
2023-05-25T16:24:22.134Z,20.30
2023-05-25T16:26:50.327Z,20.40
2023-05-25T16:29:28.512Z,20.50
2023-05-25T16:31:58.422Z,20.50
2023-05-25T16:34:26.548Z,20.60
2023-05-25T16:36:54.671Z,20.60
2023-05-25T16:39:23.199Z,20.60
2023-05-25T16:41:51.332Z,20.70
2023-05-25T16:44:19.399Z,20.70
2023-05-25T16:46:47.491Z,20.80
2023-05-25T16:49:16.881Z,20.70
2023-05-25T16:51:44.991Z,20.70
2023-05-25T16:54:15.150Z,20.80
2023-05-25T16:56:43.292Z,20.80
2023-05-25T16:59:11.496Z,20.90
2023-05-25T17:01:39.614Z,20.90
2023-05-25T17:04:07.983Z,20.90
2023-05-25T17:06:37.694Z,20.90
2023-05-25T17:09:05.901Z,20.90
2023-05-25T17:11:34.252Z,21.00
2023-05-25T17:14:02.260Z,21.10
2023-05-25T17:16:31.428Z,21.20
2023-05-25T17:18:59.672Z,21.50
2023-05-25T17:21:27.816Z,21.60
2023-05-25T17:23:58.937Z,21.70
2023-05-25T17:26:28.981Z,21.80
2023-05-25T17:29:00.691Z,21.90
2023-05-25T17:31:28.950Z,21.90
2023-05-25T17:33:57.109Z,21.70
2023-05-25T17:36:25.533Z,21.60
2023-05-25T17:38:53.557Z,21.60
2023-05-25T17:41:23.268Z,21.30
2023-05-25T17:43:53.603Z,21.50
2023-05-25T17:46:23.496Z,21.50
2023-05-25T17:48:51.652Z,21.50
2023-05-25T17:51:21.199Z,21.60
2023-05-25T17:53:49.259Z,21.60
2023-05-25T17:56:17.417Z,21.60
2023-05-25T17:58:47.852Z,21.50
2023-05-25T18:01:18.180Z,21.50
2023-05-25T18:03:46.420Z,21.30
2023-05-25T18:06:14.850Z,21.20
2023-05-25T18:08:43.234Z,21.00
2023-05-25T18:11:11.617Z,20.90
2023-05-25T18:13:39.714Z,20.80
2023-05-25T18:16:09.307Z,20.60
2023-05-25T18:18:37.798Z,20.60
2023-05-25T18:21:06.230Z,20.40
2023-05-25T18:23:37.311Z,20.30
2023-05-25T18:26:06.044Z,20.20
2023-05-25T18:28:34.115Z,20.10
2023-05-25T18:31:02.412Z,20.00
2023-05-25T18:33:31.844Z,19.90
2023-05-25T18:35:59.910Z,19.80
2023-05-25T18:38:28.010Z,19.70
2023-05-25T18:40:56.208Z,19.60
2023-05-25T18:43:25.066Z,19.40
2023-05-25T18:45:55.383Z,19.30
2023-05-25T18:48:24.261Z,19.20
2023-05-25T18:50:53.848Z,19.10
2023-05-25T18:53:22.193Z,18.90
2023-05-25T18:55:53.163Z,18.80
2023-05-25T18:58:21.306Z,18.70
2023-05-25T19:00:49.557Z,18.50
2023-05-25T19:03:17.866Z,18.40
2023-05-25T19:05:46.623Z,18.20
2023-05-25T19:08:16.477Z,18.00
2023-05-25T19:10:44.673Z,17.90
2023-05-25T19:13:12.920Z,17.70
2023-05-25T19:15:41.020Z,17.60
2023-05-25T19:18:09.147Z,17.40
2023-05-25T19:20:37.422Z,17.30
2023-05-25T19:23:05.554Z,17.20
2023-05-25T19:25:35.212Z,17.00
2023-05-25T19:28:03.671Z,16.90
2023-05-25T19:30:31.901Z,16.90
2023-05-25T19:33:00.062Z,16.80
2023-05-25T19:35:28.582Z,16.70
2023-05-25T19:37:56.672Z,16.60
2023-05-25T19:40:25.070Z,16.50
2023-05-25T19:42:57.078Z,16.40
2023-05-25T19:45:25.417Z,16.20
2023-05-25T19:47:53.979Z,16.10
2023-05-25T19:50:22.431Z,16.10
2023-05-25T19:52:50.834Z,15.90
2023-05-25T19:55:21.993Z,15.90
2023-05-25T19:57:50.206Z,15.90
2023-05-25T20:00:26.821Z,15.80
2023-05-25T20:02:55.856Z,15.80
2023-05-25T20:05:24.316Z,15.70
2023-05-25T20:07:53.009Z,15.70
2023-05-25T20:10:21.234Z,15.60
2023-05-25T20:12:50.326Z,15.50
2023-05-25T20:15:19.817Z,15.40
2023-05-25T20:17:48.065Z,15.30
2023-05-25T20:20:16.398Z,15.60
2023-05-25T20:22:44.728Z,15.40
2023-05-25T20:25:12.963Z,15.40
2023-05-25T20:27:41.089Z,15.40
2023-05-25T20:30:10.064Z,15.40
2023-05-25T20:32:39.544Z,15.30
2023-05-25T20:35:08.541Z,15.30
2023-05-25T20:37:39.458Z,15.30
2023-05-25T20:40:08.435Z,15.20
2023-05-25T20:42:36.591Z,15.20
2023-05-25T20:45:07.177Z,15.20
2023-05-25T20:47:35.530Z,15.20
2023-05-25T20:50:05.377Z,15.10
2023-05-25T20:52:33.850Z,15.10
2023-05-25T20:55:01.995Z,15.00
2023-05-25T20:57:30.482Z,15.00
2023-05-25T20:59:59.932Z,15.00
2023-05-25T21:02:28.950Z,14.90
2023-05-25T21:04:57.282Z,14.90
2023-05-25T21:07:29.858Z,14.80
2023-05-25T21:09:59.450Z,14.70
2023-05-25T21:12:27.596Z,14.70
2023-05-25T21:14:56.444Z,14.60
2023-05-25T21:17:28.151Z,14.60
2023-05-25T21:19:56.614Z,14.90
2023-05-25T21:22:26.316Z,14.60
2023-05-25T21:24:54.431Z,14.60
2023-05-25T21:27:22.455Z,14.60
2023-05-25T21:29:50.531Z,14.70
2023-05-25T21:32:19.029Z,14.50
2023-05-25T21:34:47.169Z,14.40
2023-05-25T21:37:15.376Z,14.40
2023-05-25T21:39:45.502Z,14.40
2023-05-25T21:42:13.613Z,14.20
2023-05-25T21:44:41.944Z,14.30
2023-05-25T21:47:10.060Z,14.20
2023-05-25T21:49:38.233Z,14.10
2023-05-25T21:52:21.435Z,14.10
2023-05-25T21:54:50.869Z,14.10
2023-05-25T21:57:19.065Z,14.00
2023-05-25T21:59:47.196Z,14.00
2023-05-25T22:02:15.455Z,14.00
2023-05-25T22:04:43.625Z,14.00
2023-05-25T22:07:13.695Z,13.90
2023-05-25T22:09:41.702Z,13.90
2023-05-25T22:12:12.145Z,13.80
2023-05-25T22:14:40.472Z,13.80
2023-05-25T22:17:08.894Z,13.80
2023-05-25T22:19:37.008Z,13.80
2023-05-25T22:22:05.668Z,13.80
2023-05-25T22:24:34.002Z,13.70
2023-05-25T22:27:02.949Z,13.70
2023-05-25T22:29:32.568Z,14.10
2023-05-25T22:32:00.804Z,13.70
2023-05-25T22:34:28.897Z,13.70
2023-05-25T22:36:57.109Z,13.60
2023-05-25T22:39:25.400Z,13.70
2023-05-25T22:41:53.872Z,13.60
2023-05-25T22:44:21.894Z,13.60
2023-05-25T22:46:51.549Z,13.50
2023-05-25T22:49:19.704Z,13.80
2023-05-25T22:51:50.705Z,13.50
2023-05-25T22:54:19.648Z,13.40
2023-05-25T22:56:47.882Z,13.50
2023-05-25T22:59:15.999Z,13.40
2023-05-25T23:01:44.148Z,13.40
2023-05-25T23:04:14.163Z,13.70
2023-05-25T23:06:42.401Z,13.30
2023-05-25T23:09:11.206Z,13.30
2023-05-25T23:11:39.561Z,13.50
2023-05-25T23:14:08.790Z,13.40
2023-05-25T23:16:37.262Z,13.70
2023-05-25T23:19:06.192Z,13.20
2023-05-25T23:21:35.783Z,13.10
2023-05-25T23:24:03.854Z,13.10
2023-05-25T23:26:32.088Z,13.10
2023-05-25T23:29:00.202Z,13.10
2023-05-25T23:31:29.177Z,13.10
2023-05-25T23:33:57.354Z,13.00
2023-05-25T23:36:26.186Z,13.00
2023-05-25T23:38:55.965Z,13.00
2023-05-25T23:41:25.231Z,13.00
2023-05-25T23:43:55.218Z,12.90
2023-05-25T23:46:25.181Z,12.80
2023-05-25T23:48:53.320Z,12.90
2023-05-25T23:51:21.401Z,12.80
2023-05-25T23:53:52.466Z,12.80
2023-05-25T23:56:22.706Z,13.10
2023-05-25T23:58:50.796Z,12.80
